aviador You're here:

KOVE Decoded Metar

OROVILLE in CA, USA
Report Time2017-08-16 14:53:00
UTC Time2017-08-16 15:06:13
Flight Rules vfr VFR
Wind170° at 05 kt
W.Decomp.*RWY 13: 4.6 kt HW 2.0 kt RCW
RWY 20: 3.5 kt HW 3.6 kt LCW
W.Rank170° ranks 4
Current wind is below 170° avg. (8.6)
Visibility9999 m
Phenomena:N/A
Clouds:N/A
Expected CloudBase > 2,000 ft AGL from Temp-Dew spread
CeilingNone
Temp18°C (ISA +3)
Dew Point13°C (73% RH)
AAT17.2°C
QNH1014 hPa
Density Alt755 ft
Elevation190 ft
Report Wrong Elevation
Raw Report
METAR KOVE 161453Z AUTO 17005KT 10SM CLR 18/13 A2994 RMK AO2 SLP139
T01780133 51010=

Extra information for KOVE:More info

Metar Taf Metar & Taf Last 4 Metars F.Rules Stats Wind Profile Meteogram Temp Stats Airport Information Weather charts Add Link Nearby VenuesMetar ALERT Operation Metar Decoded Social comments

AIRNAV info for KOVE